sensor_id;sensor_type;location;lat;lon;timestamp;pressure;altitude;pressure_sealevel;temperature;humidity
56292;BME280;54008;53.606;9.462;2022-09-13T00:01:39;100962.44;;;15.84;100.00
56292;BME280;54008;53.606;9.462;2022-09-13T00:04:04;100966.84;;;15.80;100.00
56292;BME280;54008;53.606;9.462;2022-09-13T00:06:30;100986.69;;;15.72;100.00
56292;BME280;54008;53.606;9.462;2022-09-13T00:08:55;100985.25;;;15.64;100.00
56292;BME280;54008;53.606;9.462;2022-09-13T00:11:23;100992.06;;;15.46;100.00
56292;BME280;54008;53.606;9.462;2022-09-13T00:13:49;100996.69;;;15.41;100.00
56292;BME280;54008;53.606;9.462;2022-09-13T00:16:16;100992.09;;;15.19;100.00
56292;BME280;54008;53.606;9.462;2022-09-13T00:18:41;100986.03;;;15.17;100.00
56292;BME280;54008;53.606;9.462;2022-09-13T00:21:09;100989.31;;;15.14;100.00
56292;BME280;54008;53.606;9.462;2022-09-13T00:23:35;100989.81;;;15.06;100.00
56292;BME280;54008;53.606;9.462;2022-09-13T00:26:06;100982.00;;;14.98;100.00
56292;BME280;54008;53.606;9.462;2022-09-13T00:28:32;100969.44;;;14.85;100.00
56292;BME280;54008;53.606;9.462;2022-09-13T00:31:01;100964.09;;;14.73;100.00
56292;BME280;54008;53.606;9.462;2022-09-13T00:33:27;100974.41;;;14.83;100.00
56292;BME280;54008;53.606;9.462;2022-09-13T00:35:52;100982.09;;;14.81;100.00
56292;BME280;54008;53.606;9.462;2022-09-13T00:38:17;100978.47;;;14.75;100.00
56292;BME280;54008;53.606;9.462;2022-09-13T00:40:43;100981.78;;;14.77;100.00
56292;BME280;54008;53.606;9.462;2022-09-13T00:43:16;100991.81;;;14.84;100.00
56292;BME280;54008;53.606;9.462;2022-09-13T00:45:42;101001.75;;;14.85;100.00
56292;BME280;54008;53.606;9.462;2022-09-13T00:48:17;101004.09;;;14.98;100.00
56292;BME280;54008;53.606;9.462;2022-09-13T00:50:47;101007.31;;;14.90;100.00
56292;BME280;54008;53.606;9.462;2022-09-13T00:53:19;101002.66;;;14.90;100.00
56292;BME280;54008;53.606;9.462;2022-09-13T00:55:54;100993.56;;;14.95;100.00
56292;BME280;54008;53.606;9.462;2022-09-13T00:58:28;101002.97;;;14.94;100.00
56292;BME280;54008;53.606;9.462;2022-09-13T01:00:56;101000.97;;;14.89;100.00
56292;BME280;54008;53.606;9.462;2022-09-13T01:03:26;101005.41;;;14.90;100.00
56292;BME280;54008;53.606;9.462;2022-09-13T01:05:59;101001.03;;;14.94;100.00
56292;BME280;54008;53.606;9.462;2022-09-13T01:08:27;100985.81;;;14.92;100.00
56292;BME280;54008;53.606;9.462;2022-09-13T01:10:56;100973.09;;;14.91;100.00
56292;BME280;54008;53.606;9.462;2022-09-13T01:13:25;100975.53;;;14.87;100.00
56292;BME280;54008;53.606;9.462;2022-09-13T01:15:52;100955.94;;;14.89;100.00
56292;BME280;54008;53.606;9.462;2022-09-13T01:18:17;100953.13;;;14.84;100.00
56292;BME280;54008;53.606;9.462;2022-09-13T01:23:28;100949.78;;;14.82;100.00
56292;BME280;54008;53.606;9.462;2022-09-13T01:32:07;100926.56;;;14.77;100.00
56292;BME280;54008;53.606;9.462;2022-09-13T01:37:24;100923.25;;;14.75;100.00
56292;BME280;54008;53.606;9.462;2022-09-13T01:40:07;100930.13;;;14.73;100.00
56292;BME280;54008;53.606;9.462;2022-09-13T01:48:29;100909.97;;;14.77;100.00
56292;BME280;54008;53.606;9.462;2022-09-13T01:51:26;100908.84;;;14.73;100.00
56292;BME280;54008;53.606;9.462;2022-09-13T01:53:57;100907.75;;;14.74;100.00
56292;BME280;54008;53.606;9.462;2022-09-13T01:56:37;100903.94;;;14.81;100.00
56292;BME280;54008;53.606;9.462;2022-09-13T01:59:11;100908.31;;;14.76;100.00
56292;BME280;54008;53.606;9.462;2022-09-13T02:01:43;100919.41;;;14.82;100.00
56292;BME280;54008;53.606;9.462;2022-09-13T02:04:18;100914.47;;;14.84;100.00
56292;BME280;54008;53.606;9.462;2022-09-13T02:06:50;100921.69;;;14.90;100.00
56292;BME280;54008;53.606;9.462;2022-09-13T02:09:20;100922.47;;;14.85;100.00
56292;BME280;54008;53.606;9.462;2022-09-13T02:11:50;100918.88;;;14.85;100.00
56292;BME280;54008;53.606;9.462;2022-09-13T02:14:21;100935.19;;;14.86;100.00
56292;BME280;54008;53.606;9.462;2022-09-13T02:16:53;100924.69;;;14.83;100.00
56292;BME280;54008;53.606;9.462;2022-09-13T02:19:28;100912.25;;;14.86;100.00
56292;BME280;54008;53.606;9.462;2022-09-13T02:21:58;100916.13;;;14.85;100.00
56292;BME280;54008;53.606;9.462;2022-09-13T02:24:31;100910.09;;;14.88;100.00
56292;BME280;54008;53.606;9.462;2022-09-13T02:27:02;100913.97;;;14.92;100.00
56292;BME280;54008;53.606;9.462;2022-09-13T02:29:30;100913.97;;;14.92;100.00
56292;BME280;54008;53.606;9.462;2022-09-13T02:32:09;100909.56;;;14.91;100.00
56292;BME280;54008;53.606;9.462;2022-09-13T02:34:41;100902.63;;;14.88;100.00
56292;BME280;54008;53.606;9.462;2022-09-13T02:37:08;100907.88;;;14.90;100.00
56292;BME280;54008;53.606;9.462;2022-09-13T02:39:37;100907.34;;;14.93;100.00
56292;BME280;54008;53.606;9.462;2022-09-13T02:42:14;100903.72;;;14.87;100.00
56292;BME280;54008;53.606;9.462;2022-09-13T02:44:45;100907.31;;;14.88;100.00
56292;BME280;54008;53.606;9.462;2022-09-13T02:50:25;100888.00;;;14.93;100.00
56292;BME280;54008;53.606;9.462;2022-09-13T02:53:03;100891.88;;;14.92;100.00
56292;BME280;54008;53.606;9.462;2022-09-13T02:58:25;100888.59;;;14.95;100.00
56292;BME280;54008;53.606;9.462;2022-09-13T03:00:55;100885.03;;;14.99;100.00
56292;BME280;54008;53.606;9.462;2022-09-13T03:03:20;100890.03;;;15.02;100.00
56292;BME280;54008;53.606;9.462;2022-09-13T03:05:45;100884.53;;;15.08;100.00
56292;BME280;54008;53.606;9.462;2022-09-13T03:08:12;100878.75;;;15.09;100.00
56292;BME280;54008;53.606;9.462;2022-09-13T03:21:13;100856.09;;;15.12;100.00
56292;BME280;54008;53.606;9.462;2022-09-13T03:26:43;100849.25;;;15.20;100.00
56292;BME280;54008;53.606;9.462;2022-09-13T03:30:18;100848.16;;;15.21;100.00
56292;BME280;54008;53.606;9.462;2022-09-13T03:35:24;100845.09;;;15.22;100.00
56292;BME280;54008;53.606;9.462;2022-09-13T03:40:36;100840.41;;;15.23;100.00
56292;BME280;54008;53.606;9.462;2022-09-13T03:43:11;100851.75;;;15.26;100.00
56292;BME280;54008;53.606;9.462;2022-09-13T03:45:43;100860.34;;;15.30;100.00
56292;BME280;54008;53.606;9.462;2022-09-13T03:48:10;100861.19;;;15.31;100.00
56292;BME280;54008;53.606;9.462;2022-09-13T03:50:38;100861.75;;;15.33;100.00
56292;BME280;54008;53.606;9.462;2022-09-13T03:53:08;100862.88;;;15.37;100.00
56292;BME280;54008;53.606;9.462;2022-09-13T03:55:34;100871.16;;;15.37;100.00
56292;BME280;54008;53.606;9.462;2022-09-13T03:58:02;100871.44;;;15.35;100.00
56292;BME280;54008;53.606;9.462;2022-09-13T04:00:27;100879.41;;;15.26;100.00
56292;BME280;54008;53.606;9.462;2022-09-13T04:02:53;100879.69;;;15.25;100.00
56292;BME280;54008;53.606;9.462;2022-09-13T04:05:19;100878.78;;;15.14;100.00
56292;BME280;54008;53.606;9.462;2022-09-13T04:07:44;100888.16;;;15.13;100.00
56292;BME280;54008;53.606;9.462;2022-09-13T04:10:10;100895.34;;;15.14;100.00
56292;BME280;54008;53.606;9.462;2022-09-13T04:12:36;100895.34;;;15.09;100.00
56292;BME280;54008;53.606;9.462;2022-09-13T04:15:01;100904.69;;;15.08;100.00
56292;BME280;54008;53.606;9.462;2022-09-13T04:17:27;100911.09;;;15.09;100.00
56292;BME280;54008;53.606;9.462;2022-09-13T04:19:52;100909.91;;;15.04;100.00
56292;BME280;54008;53.606;9.462;2022-09-13T04:22:17;100906.84;;;15.01;100.00
56292;BME280;54008;53.606;9.462;2022-09-13T04:24:43;100911.56;;;15.00;100.00
56292;BME280;54008;53.606;9.462;2022-09-13T04:27:08;100912.38;;;15.01;100.00
56292;BME280;54008;53.606;9.462;2022-09-13T04:29:33;100906.81;;;14.96;100.00
56292;BME280;54008;53.606;9.462;2022-09-13T04:31:59;100919.53;;;14.97;100.00
56292;BME280;54008;53.606;9.462;2022-09-13T04:34:24;100916.22;;;14.95;100.00
56292;BME280;54008;53.606;9.462;2022-09-13T04:36:51;100912.63;;;14.94;100.00
56292;BME280;54008;53.606;9.462;2022-09-13T04:39:17;100920.03;;;14.89;100.00
56292;BME280;54008;53.606;9.462;2022-09-13T04:41:43;100921.97;;;14.88;100.00
56292;BME280;54008;53.606;9.462;2022-09-13T04:44:11;100928.91;;;14.91;100.00
56292;BME280;54008;53.606;9.462;2022-09-13T04:46:36;100936.03;;;14.87;100.00
56292;BME280;54008;53.606;9.462;2022-09-13T04:49:02;100936.03;;;14.87;100.00
56292;BME280;54008;53.606;9.462;2022-09-13T04:51:27;100942.41;;;14.87;100.00
56292;BME280;54008;53.606;9.462;2022-09-13T04:53:54;100937.69;;;14.88;100.00
56292;BME280;54008;53.606;9.462;2022-09-13T04:56:20;100937.94;;;14.86;100.00
56292;BME280;54008;53.606;9.462;2022-09-13T04:58:47;100936.56;;;14.84;100.00
56292;BME280;54008;53.606;9.462;2022-09-13T05:01:12;100937.66;;;14.83;100.00
56292;BME280;54008;53.606;9.462;2022-09-13T05:03:38;100940.97;;;14.85;100.00
56292;BME280;54008;53.606;9.462;2022-09-13T05:06:04;100957.56;;;14.85;100.00
56292;BME280;54008;53.606;9.462;2022-09-13T05:08:31;100958.16;;;14.87;100.00
56292;BME280;54008;53.606;9.462;2022-09-13T05:10:56;100967.56;;;14.91;100.00
56292;BME280;54008;53.606;9.462;2022-09-13T05:13:22;100977.50;;;14.92;100.00
56292;BME280;54008;53.606;9.462;2022-09-13T05:15:48;100970.03;;;14.87;100.00
56292;BME280;54008;53.606;9.462;2022-09-13T05:18:14;100964.22;;;14.89;100.00
56292;BME280;54008;53.606;9.462;2022-09-13T05:20:39;100968.13;;;14.93;100.00
56292;BME280;54008;53.606;9.462;2022-09-13T05:23:04;100968.94;;;14.93;100.00
56292;BME280;54008;53.606;9.462;2022-09-13T05:25:30;100975.63;;;14.97;100.00
56292;BME280;54008;53.606;9.462;2022-09-13T05:27:55;100958.53;;;15.00;100.00
56292;BME280;54008;53.606;9.462;2022-09-13T05:30:20;100953.50;;;14.97;100.00
56292;BME280;54008;53.606;9.462;2022-09-13T05:32:45;100949.91;;;14.97;100.00
56292;BME280;54008;53.606;9.462;2022-09-13T05:35:11;100943.31;;;14.98;100.00
56292;BME280;54008;53.606;9.462;2022-09-13T05:37:37;100946.13;;;15.03;100.00
56292;BME280;54008;53.606;9.462;2022-09-13T05:40:03;100953.81;;;15.01;100.00
56292;BME280;54008;53.606;9.462;2022-09-13T05:42:28;100956.59;;;15.01;100.00
56292;BME280;54008;53.606;9.462;2022-09-13T05:44:53;100967.69;;;15.06;100.00
56292;BME280;54008;53.606;9.462;2022-09-13T05:47:19;100967.72;;;15.11;100.00
56292;BME280;54008;53.606;9.462;2022-09-13T05:49:45;100969.34;;;15.07;100.00
56292;BME280;54008;53.606;9.462;2022-09-13T05:52:10;100964.97;;;15.11;100.00
56292;BME280;54008;53.606;9.462;2022-09-13T05:54:35;100961.09;;;15.12;100.00
56292;BME280;54008;53.606;9.462;2022-09-13T05:57:02;100956.72;;;15.16;100.00
56292;BME280;54008;53.606;9.462;2022-09-13T05:59:27;100956.47;;;15.18;100.00
56292;BME280;54008;53.606;9.462;2022-09-13T06:01:52;100950.94;;;15.23;100.00
56292;BME280;54008;53.606;9.462;2022-09-13T06:04:17;100967.84;;;15.26;100.00
56292;BME280;54008;53.606;9.462;2022-09-13T06:06:43;100952.38;;;15.25;100.00
56292;BME280;54008;53.606;9.462;2022-09-13T06:09:09;100963.75;;;15.34;100.00
56292;BME280;54008;53.606;9.462;2022-09-13T06:11:35;100957.41;;;15.34;100.00
56292;BME280;54008;53.606;9.462;2022-09-13T06:14:00;100961.25;;;15.33;100.00
56292;BME280;54008;53.606;9.462;2022-09-13T06:16:25;100967.41;;;15.40;100.00
56292;BME280;54008;53.606;9.462;2022-09-13T06:18:51;100967.41;;;15.40;100.00
56292;BME280;54008;53.606;9.462;2022-09-13T06:21:18;100961.34;;;15.43;100.00
56292;BME280;54008;53.606;9.462;2022-09-13T06:23:49;100968.53;;;15.44;100.00
56292;BME280;54008;53.606;9.462;2022-09-13T06:26:23;100964.34;;;15.41;100.00
56292;BME280;54008;53.606;9.462;2022-09-13T06:28:50;100969.06;;;15.41;100.00
56292;BME280;54008;53.606;9.462;2022-09-13T06:31:17;100971.00;;;15.45;100.00
56292;BME280;54008;53.606;9.462;2022-09-13T06:33:42;100970.25;;;15.55;100.00
56292;BME280;54008;53.606;9.462;2022-09-13T06:36:10;100979.22;;;15.67;100.00
56292;BME280;54008;53.606;9.462;2022-09-13T06:38:38;100973.44;;;15.69;100.00
56292;BME280;54008;53.606;9.462;2022-09-13T06:41:06;100972.31;;;15.70;100.00
56292;BME280;54008;53.606;9.462;2022-09-13T06:43:33;100962.91;;;15.71;100.00
56292;BME280;54008;53.606;9.462;2022-09-13T06:46:00;100963.22;;;15.74;100.00
56292;BME280;54008;53.606;9.462;2022-09-13T06:48:26;100965.47;;;15.83;100.00
56292;BME280;54008;53.606;9.462;2022-09-13T06:50:57;100969.09;;;15.88;100.00
56292;BME280;54008;53.606;9.462;2022-09-13T06:53:22;100965.53;;;15.93;100.00
56292;BME280;54008;53.606;9.462;2022-09-13T06:55:48;100963.88;;;15.97;100.00
56292;BME280;54008;53.606;9.462;2022-09-13T06:58:13;100965.56;;;16.03;100.00
56292;BME280;54008;53.606;9.462;2022-09-13T07:00:39;100964.75;;;16.03;100.00
56292;BME280;54008;53.606;9.462;2022-09-13T07:03:04;100965.88;;;16.07;100.00
56292;BME280;54008;53.606;9.462;2022-09-13T07:05:29;100965.03;;;16.11;100.00
56292;BME280;54008;53.606;9.462;2022-09-13T07:07:54;100971.69;;;16.15;100.00
56292;BME280;54008;53.606;9.462;2022-09-13T07:10:20;100962.28;;;16.16;100.00
56292;BME280;54008;53.606;9.462;2022-09-13T07:12:45;100968.72;;;16.32;100.00
56292;BME280;54008;53.606;9.462;2022-09-13T07:15:11;100962.34;;;16.27;100.00
56292;BME280;54008;53.606;9.462;2022-09-13T07:17:36;100967.59;;;16.28;100.00
56292;BME280;54008;53.606;9.462;2022-09-13T07:20:02;100969.56;;;16.33;100.00
56292;BME280;54008;53.606;9.462;2022-09-13T07:22:29;100969.03;;;16.36;100.00
56292;BME280;54008;53.606;9.462;2022-09-13T07:24:55;100967.34;;;16.35;100.00
56292;BME280;54008;53.606;9.462;2022-09-13T07:27:21;100970.09;;;16.35;100.00
56292;BME280;54008;53.606;9.462;2022-09-13T07:29:46;100967.34;;;16.30;100.00
56292;BME280;54008;53.606;9.462;2022-09-13T07:32:11;100965.66;;;16.29;100.00
56292;BME280;54008;53.606;9.462;2022-09-13T07:34:37;100965.69;;;16.34;100.00
56292;BME280;54008;53.606;9.462;2022-09-13T07:37:02;100968.19;;;16.45;100.00
56292;BME280;54008;53.606;9.462;2022-09-13T07:39:27;100964.88;;;16.48;100.00
56292;BME280;54008;53.606;9.462;2022-09-13T07:41:52;100967.94;;;16.52;100.00
56292;BME280;54008;53.606;9.462;2022-09-13T07:44:18;100965.47;;;16.56;100.00
56292;BME280;54008;53.606;9.462;2022-09-13T07:46:43;100963.53;;;16.66;100.00
56292;BME280;54008;53.606;9.462;2022-09-13T07:49:13;100966.31;;;16.71;100.00
56292;BME280;54008;53.606;9.462;2022-09-13T07:51:40;100968.03;;;16.83;100.00
56292;BME280;54008;53.606;9.462;2022-09-13T07:54:10;100962.75;;;16.91;100.00
56292;BME280;54008;53.606;9.462;2022-09-13T07:56:38;100951.13;;;16.89;100.00
56292;BME280;54008;53.606;9.462;2022-09-13T07:59:05;100942.81;;;16.89;100.00
56292;BME280;54008;53.606;9.462;2022-09-13T08:01:36;100938.66;;;16.82;100.00
56292;BME280;54008;53.606;9.462;2022-09-13T08:04:05;100932.53;;;16.95;100.00
56292;BME280;54008;53.606;9.462;2022-09-13T08:06:32;100935.59;;;17.09;100.00
56292;BME280;54008;53.606;9.462;2022-09-13T08:08:58;100925.91;;;17.11;100.00
56292;BME280;54008;53.606;9.462;2022-09-13T08:11:32;100916.75;;;17.06;100.00
56292;BME280;54008;53.606;9.462;2022-09-13T08:13:58;100923.66;;;17.13;100.00
56292;BME280;54008;53.606;9.462;2022-09-13T08:16:25;100910.41;;;17.10;100.00
56292;BME280;54008;53.606;9.462;2022-09-13T08:18:56;100891.00;;;17.00;100.00
56292;BME280;54008;53.606;9.462;2022-09-13T08:21:22;100891.81;;;17.01;100.00
56292;BME280;54008;53.606;9.462;2022-09-13T08:23:48;100893.50;;;17.07;100.00
56292;BME280;54008;53.606;9.462;2022-09-13T08:26:13;100887.66;;;17.08;100.00
56292;BME280;54008;53.606;9.462;2022-09-13T08:28:40;100884.88;;;17.08;100.00
56292;BME280;54008;53.606;9.462;2022-09-13T08:31:14;100896.53;;;17.10;100.00
56292;BME280;54008;53.606;9.462;2022-09-13T08:33:42;100869.94;;;16.99;100.00
56292;BME280;54008;53.606;9.462;2022-09-13T08:36:08;100859.94;;;17.08;100.00
56292;BME280;54008;53.606;9.462;2022-09-13T08:38:33;100852.19;;;17.10;100.00
56292;BME280;54008;53.606;9.462;2022-09-13T08:41:02;100861.59;;;17.14;100.00
56292;BME280;54008;53.606;9.462;2022-09-13T08:48:48;100867.13;;;17.19;100.00
56292;BME280;54008;53.606;9.462;2022-09-13T08:51:44;100868.81;;;17.10;100.00
56292;BME280;54008;53.606;9.462;2022-09-13T08:54:12;100873.78;;;17.13;100.00
56292;BME280;54008;53.606;9.462;2022-09-13T08:57:02;100865.47;;;17.08;100.00
56292;BME280;54008;53.606;9.462;2022-09-13T09:02:48;100856.16;;;17.64;100.00
56292;BME280;54008;53.606;9.462;2022-09-13T09:05:20;100851.41;;;17.75;100.00
56292;BME280;54008;53.606;9.462;2022-09-13T09:07:50;100867.41;;;17.98;100.00
56292;BME280;54008;53.606;9.462;2022-09-13T09:10:21;100857.84;;;18.20;100.00
56292;BME280;54008;53.606;9.462;2022-09-13T09:12:58;100857.19;;;18.38;100.00
56292;BME280;54008;53.606;9.462;2022-09-13T09:15:38;100853.31;;;18.73;100.00
56292;BME280;54008;53.606;9.462;2022-09-13T09:18:12;100853.41;;;18.92;100.00
56292;BME280;54008;53.606;9.462;2022-09-13T09:20:45;100845.13;;;18.87;100.00
56292;BME280;54008;53.606;9.462;2022-09-13T09:23:17;100845.13;;;18.53;100.00
56292;BME280;54008;53.606;9.462;2022-09-13T09:25:43;100851.13;;;18.26;100.00
56292;BME280;54008;53.606;9.462;2022-09-13T09:28:13;100843.00;;;18.00;100.00
56292;BME280;54008;53.606;9.462;2022-09-13T09:30:57;100856.13;;;17.79;100.00
56292;BME280;54008;53.606;9.462;2022-09-13T09:36:38;100854.16;;;18.34;100.00
56292;BME280;54008;53.606;9.462;2022-09-13T09:39:05;100842.44;;;18.77;100.00
56292;BME280;54008;53.606;9.462;2022-09-13T09:41:34;100841.91;;;18.75;100.00
56292;BME280;54008;53.606;9.462;2022-09-13T09:46:49;100853.06;;;18.30;100.00
56292;BME280;54008;53.606;9.462;2022-09-13T09:49:22;100850.06;;;18.56;100.00
56292;BME280;54008;53.606;9.462;2022-09-13T09:52:11;100843.66;;;18.60;100.00
56292;BME280;54008;53.606;9.462;2022-09-13T09:54:38;100848.28;;;18.70;100.00
56292;BME280;54008;53.606;9.462;2022-09-13T09:57:05;100845.03;;;18.97;100.00
56292;BME280;54008;53.606;9.462;2022-09-13T09:59:33;100840.91;;;19.19;100.00
56292;BME280;54008;53.606;9.462;2022-09-13T10:01:59;100835.31;;;19.24;100.00
56292;BME280;54008;53.606;9.462;2022-09-13T10:04:27;100842.03;;;19.18;100.00
56292;BME280;54008;53.606;9.462;2022-09-13T10:07:23;100833.06;;;18.97;100.00
56292;BME280;54008;53.606;9.462;2022-09-13T10:09:57;100825.75;;;19.06;100.00
56292;BME280;54008;53.606;9.462;2022-09-13T10:12:28;100820.13;;;19.11;100.00
56292;BME280;54008;53.606;9.462;2022-09-13T10:15:09;100816.31;;;19.31;100.00
56292;BME280;54008;53.606;9.462;2022-09-13T10:17:39;100819.25;;;19.40;100.00
56292;BME280;54008;53.606;9.462;2022-09-13T10:20:20;100814.47;;;19.21;100.00
56292;BME280;54008;53.606;9.462;2022-09-13T10:25:35;100806.66;;;19.23;100.00
56292;BME280;54008;53.606;9.462;2022-09-13T10:28:03;100819.41;;;19.00;100.00
56292;BME280;54008;53.606;9.462;2022-09-13T10:30:44;100821.25;;;18.86;100.00
56292;BME280;54008;53.606;9.462;2022-09-13T10:33:26;100824.94;;;19.05;100.00
56292;BME280;54008;53.606;9.462;2022-09-13T10:35:55;100822.16;;;19.05;100.00
56292;BME280;54008;53.606;9.462;2022-09-13T10:40:56;100818.06;;;19.22;100.00
56292;BME280;54008;53.606;9.462;2022-09-13T10:43:23;100817.78;;;19.23;100.00
56292;BME280;54008;53.606;9.462;2022-09-13T10:45:51;100824.72;;;19.50;100.00
56292;BME280;54008;53.606;9.462;2022-09-13T10:48:18;100815.66;;;19.39;100.00
56292;BME280;54008;53.606;9.462;2022-09-13T10:51:05;100813.56;;;19.26;100.00
56292;BME280;54008;53.606;9.462;2022-09-13T10:53:38;100812.81;;;19.44;100.00
56292;BME280;54008;53.606;9.462;2022-09-13T10:56:40;100809.81;;;19.17;100.00
56292;BME280;54008;53.606;9.462;2022-09-13T10:59:21;100809.34;;;19.04;100.00
56292;BME280;54008;53.606;9.462;2022-09-13T11:10:27;100813.81;;;18.42;100.00
56292;BME280;54008;53.606;9.462;2022-09-13T11:18:33;100795.59;;;19.18;100.00
56292;BME280;54008;53.606;9.462;2022-09-13T11:24:42;100805.47;;;18.76;100.00
56292;BME280;54008;53.606;9.462;2022-09-13T11:35:23;100801.78;;;18.52;100.00
56292;BME280;54008;53.606;9.462;2022-09-13T11:38:14;100806.75;;;18.55;100.00
56292;BME280;54008;53.606;9.462;2022-09-13T11:40:48;100804.47;;;18.62;100.00
56292;BME280;54008;53.606;9.462;2022-09-13T11:57:14;100798.50;;;19.75;100.00
56292;BME280;54008;53.606;9.462;2022-09-13T11:59:54;100792.13;;;19.74;100.00
56292;BME280;54008;53.606;9.462;2022-09-13T12:05:39;100799.09;;;19.05;100.00
56292;BME280;54008;53.606;9.462;2022-09-13T12:10:54;100787.41;;;18.79;100.00
56292;BME280;54008;53.606;9.462;2022-09-13T12:13:26;100792.72;;;18.75;100.00
56292;BME280;54008;53.606;9.462;2022-09-13T12:15:56;100788.03;;;18.65;100.00
56292;BME280;54008;53.606;9.462;2022-09-13T12:18:50;100796.16;;;18.91;100.00
56292;BME280;54008;53.606;9.462;2022-09-13T12:21:22;100808.28;;;19.00;100.00
56292;BME280;54008;53.606;9.462;2022-09-13T12:24:00;100802.19;;;18.69;100.00
56292;BME280;54008;53.606;9.462;2022-09-13T12:26:34;100801.09;;;18.65;100.00
56292;BME280;54008;53.606;9.462;2022-09-13T12:29:24;100809.19;;;18.61;100.00
56292;BME280;54008;53.606;9.462;2022-09-13T12:31:56;100803.22;;;19.07;100.00
56292;BME280;54008;53.606;9.462;2022-09-13T12:34:43;100786.97;;;19.20;100.00
56292;BME280;54008;53.606;9.462;2022-09-13T12:37:18;100787.31;;;19.13;100.00
56292;BME280;54008;53.606;9.462;2022-09-13T12:39:56;100802.09;;;19.08;100.00
56292;BME280;54008;53.606;9.462;2022-09-13T12:48:28;100798.78;;;19.54;100.00
56292;BME280;54008;53.606;9.462;2022-09-13T13:02:43;100796.06;;;19.01;100.00
56292;BME280;54008;53.606;9.462;2022-09-13T13:07:55;100800.22;;;18.70;100.00
56292;BME280;54008;53.606;9.462;2022-09-13T13:11:00;100793.34;;;18.62;100.00
56292;BME280;54008;53.606;9.462;2022-09-13T13:13:41;100804.75;;;18.95;100.00
56292;BME280;54008;53.606;9.462;2022-09-13T13:16:26;100810.31;;;19.19;100.00
56292;BME280;54008;53.606;9.462;2022-09-13T13:18:53;100808.25;;;19.53;100.00
56292;BME280;54008;53.606;9.462;2022-09-13T13:21:33;100813.94;;;19.67;100.00
56292;BME280;54008;53.606;9.462;2022-09-13T13:29:15;100818.44;;;19.39;100.00
56292;BME280;54008;53.606;9.462;2022-09-13T13:32:03;100822.22;;;19.72;100.00
56292;BME280;54008;53.606;9.462;2022-09-13T13:34:49;100815.69;;;19.34;100.00
56292;BME280;54008;53.606;9.462;2022-09-13T13:39:47;100823.88;;;19.01;100.00
56292;BME280;54008;53.606;9.462;2022-09-13T13:42:25;100834.16;;;18.66;100.00
56292;BME280;54008;53.606;9.462;2022-09-13T13:49:51;100818.41;;;18.23;100.00
56292;BME280;54008;53.606;9.462;2022-09-13T13:57:43;100820.59;;;18.26;100.00
56292;BME280;54008;53.606;9.462;2022-09-13T14:00:18;100819.38;;;18.37;100.00
56292;BME280;54008;53.606;9.462;2022-09-13T14:11:26;100818.66;;;18.95;100.00
56292;BME280;54008;53.606;9.462;2022-09-13T14:14:17;100817.72;;;18.75;100.00
56292;BME280;54008;53.606;9.462;2022-09-13T14:16:55;100817.47;;;18.66;100.00
56292;BME280;54008;53.606;9.462;2022-09-13T14:19:29;100816.38;;;18.68;100.00
56292;BME280;54008;53.606;9.462;2022-09-13T14:22:11;100832.97;;;18.44;100.00
56292;BME280;54008;53.606;9.462;2022-09-13T14:24:41;100817.63;;;18.51;100.00
56292;BME280;54008;53.606;9.462;2022-09-13T14:27:13;100811.97;;;18.61;100.00
56292;BME280;54008;53.606;9.462;2022-09-13T14:29:43;100815.72;;;18.47;100.00
56292;BME280;54008;53.606;9.462;2022-09-13T14:32:15;100813.69;;;18.23;100.00
56292;BME280;54008;53.606;9.462;2022-09-13T14:35:02;100816.19;;;18.20;100.00
56292;BME280;54008;53.606;9.462;2022-09-13T14:37:32;100823.75;;;18.48;100.00
56292;BME280;54008;53.606;9.462;2022-09-13T14:42:44;100820.50;;;18.41;100.00
56292;BME280;54008;53.606;9.462;2022-09-13T14:45:29;100818.00;;;18.39;100.00
56292;BME280;54008;53.606;9.462;2022-09-13T14:50:55;100810.84;;;18.28;100.00
56292;BME280;54008;53.606;9.462;2022-09-13T14:53:24;100814.53;;;18.18;100.00
56292;BME280;54008;53.606;9.462;2022-09-13T14:55:54;100810.16;;;18.07;100.00
56292;BME280;54008;53.606;9.462;2022-09-13T14:58:37;100804.84;;;18.11;100.00
56292;BME280;54008;53.606;9.462;2022-09-13T15:01:09;100815.44;;;18.09;100.00
56292;BME280;54008;53.606;9.462;2022-09-13T15:03:35;100819.59;;;18.11;100.00
56292;BME280;54008;53.606;9.462;2022-09-13T15:06:04;100818.50;;;18.07;100.00
56292;BME280;54008;53.606;9.462;2022-09-13T15:11:04;100811.91;;;17.98;100.00
56292;BME280;54008;53.606;9.462;2022-09-13T15:13:30;100818.59;;;17.92;100.00
56292;BME280;54008;53.606;9.462;2022-09-13T15:15:56;100813.63;;;17.89;100.00
56292;BME280;54008;53.606;9.462;2022-09-13T15:18:25;100811.44;;;17.81;100.00
56292;BME280;54008;53.606;9.462;2022-09-13T15:20:55;100813.06;;;17.87;100.00
56292;BME280;54008;53.606;9.462;2022-09-13T15:26:21;100813.63;;;17.89;100.00
56292;BME280;54008;53.606;9.462;2022-09-13T15:28:54;100817.56;;;17.73;100.00
56292;BME280;54008;53.606;9.462;2022-09-13T15:31:26;100823.13;;;17.67;100.00
56292;BME280;54008;53.606;9.462;2022-09-13T15:36:45;100818.75;;;17.56;100.00
56292;BME280;54008;53.606;9.462;2022-09-13T15:39:17;100812.38;;;17.56;100.00
56292;BME280;54008;53.606;9.462;2022-09-13T15:41:56;100811.84;;;17.49;100.00
56292;BME280;54008;53.606;9.462;2022-09-13T15:44:23;100815.41;;;17.54;100.00
56292;BME280;54008;53.606;9.462;2022-09-13T15:46:51;100821.56;;;17.46;100.00